sensor_id;sensor_type;location;lat;lon;timestamp;temperature;humidity
21019;DHT22;10667;51.056;3.732;2023-09-07T00:01:31;23.90;99.90
21019;DHT22;10667;51.056;3.732;2023-09-07T00:03:57;23.90;99.90
21019;DHT22;10667;51.056;3.732;2023-09-07T00:06:23;23.90;99.90
21019;DHT22;10667;51.056;3.732;2023-09-07T00:08:49;23.80;99.90
21019;DHT22;10667;51.056;3.732;2023-09-07T00:11:14;23.80;99.90
21019;DHT22;10667;51.056;3.732;2023-09-07T00:13:40;23.80;99.90
21019;DHT22;10667;51.056;3.732;2023-09-07T00:16:06;23.80;99.90
21019;DHT22;10667;51.056;3.732;2023-09-07T00:18:33;23.80;99.90
21019;DHT22;10667;51.056;3.732;2023-09-07T00:20:59;23.80;99.90
21019;DHT22;10667;51.056;3.732;2023-09-07T00:23:25;23.80;99.90
21019;DHT22;10667;51.056;3.732;2023-09-07T00:25:51;23.80;99.90
21019;DHT22;10667;51.056;3.732;2023-09-07T00:28:16;23.70;99.90
21019;DHT22;10667;51.056;3.732;2023-09-07T00:30:42;23.70;99.90
21019;DHT22;10667;51.056;3.732;2023-09-07T00:33:08;23.70;99.90
21019;DHT22;10667;51.056;3.732;2023-09-07T00:35:34;23.70;99.90
21019;DHT22;10667;51.056;3.732;2023-09-07T00:38:00;23.70;99.90
21019;DHT22;10667;51.056;3.732;2023-09-07T00:40:26;23.70;99.90
21019;DHT22;10667;51.056;3.732;2023-09-07T00:42:52;23.70;99.90
21019;DHT22;10667;51.056;3.732;2023-09-07T00:45:18;23.60;99.90
21019;DHT22;10667;51.056;3.732;2023-09-07T00:47:44;23.60;99.90
21019;DHT22;10667;51.056;3.732;2023-09-07T00:50:10;23.60;99.90
21019;DHT22;10667;51.056;3.732;2023-09-07T00:52:40;23.60;99.90
21019;DHT22;10667;51.056;3.732;2023-09-07T00:55:07;23.60;99.90
21019;DHT22;10667;51.056;3.732;2023-09-07T00:57:34;23.50;99.90
21019;DHT22;10667;51.056;3.732;2023-09-07T00:59:59;23.50;99.90
21019;DHT22;10667;51.056;3.732;2023-09-07T01:02:25;23.40;99.90
21019;DHT22;10667;51.056;3.732;2023-09-07T01:04:51;23.40;99.90
21019;DHT22;10667;51.056;3.732;2023-09-07T01:07:20;23.40;99.90
21019;DHT22;10667;51.056;3.732;2023-09-07T01:09:52;23.30;99.90
21019;DHT22;10667;51.056;3.732;2023-09-07T01:12:19;23.30;99.90
21019;DHT22;10667;51.056;3.732;2023-09-07T01:14:45;23.20;99.90
21019;DHT22;10667;51.056;3.732;2023-09-07T01:17:11;23.20;99.90
21019;DHT22;10667;51.056;3.732;2023-09-07T01:19:39;23.20;99.90
21019;DHT22;10667;51.056;3.732;2023-09-07T01:22:06;23.10;99.90
21019;DHT22;10667;51.056;3.732;2023-09-07T01:24:33;23.10;99.90
21019;DHT22;10667;51.056;3.732;2023-09-07T01:27:01;23.00;99.90
21019;DHT22;10667;51.056;3.732;2023-09-07T01:29:29;23.00;99.90
21019;DHT22;10667;51.056;3.732;2023-09-07T01:31:55;23.00;99.90
21019;DHT22;10667;51.056;3.732;2023-09-07T01:34:22;22.90;99.90
21019;DHT22;10667;51.056;3.732;2023-09-07T01:36:49;22.90;99.90
21019;DHT22;10667;51.056;3.732;2023-09-07T01:39:14;22.90;99.90
21019;DHT22;10667;51.056;3.732;2023-09-07T01:41:40;22.90;99.90
21019;DHT22;10667;51.056;3.732;2023-09-07T01:44:06;22.80;99.90
21019;DHT22;10667;51.056;3.732;2023-09-07T01:46:31;22.80;99.90
21019;DHT22;10667;51.056;3.732;2023-09-07T01:48:57;22.80;99.90
21019;DHT22;10667;51.056;3.732;2023-09-07T01:51:23;22.70;99.90
21019;DHT22;10667;51.056;3.732;2023-09-07T01:53:48;22.70;99.90
21019;DHT22;10667;51.056;3.732;2023-09-07T01:56:16;22.70;99.90
21019;DHT22;10667;51.056;3.732;2023-09-07T01:58:42;22.60;99.90
21019;DHT22;10667;51.056;3.732;2023-09-07T02:01:20;22.60;99.90
21019;DHT22;10667;51.056;3.732;2023-09-07T02:03:46;22.50;99.90
21019;DHT22;10667;51.056;3.732;2023-09-07T02:06:11;22.50;99.90
21019;DHT22;10667;51.056;3.732;2023-09-07T02:08:37;22.50;99.90
21019;DHT22;10667;51.056;3.732;2023-09-07T02:11:02;22.40;99.90
21019;DHT22;10667;51.056;3.732;2023-09-07T02:13:30;22.40;99.90
21019;DHT22;10667;51.056;3.732;2023-09-07T02:15:56;22.40;99.90
21019;DHT22;10667;51.056;3.732;2023-09-07T02:18:21;22.40;99.90
21019;DHT22;10667;51.056;3.732;2023-09-07T02:20:47;22.30;99.90
21019;DHT22;10667;51.056;3.732;2023-09-07T02:23:13;22.30;99.90
21019;DHT22;10667;51.056;3.732;2023-09-07T02:25:40;22.30;99.90
21019;DHT22;10667;51.056;3.732;2023-09-07T02:28:06;22.20;99.90
21019;DHT22;10667;51.056;3.732;2023-09-07T02:30:32;22.20;99.90
21019;DHT22;10667;51.056;3.732;2023-09-07T02:32:57;22.20;99.90
21019;DHT22;10667;51.056;3.732;2023-09-07T02:35:23;22.10;99.90
21019;DHT22;10667;51.056;3.732;2023-09-07T02:37:49;22.10;99.90
21019;DHT22;10667;51.056;3.732;2023-09-07T02:40:14;22.10;99.90
21019;DHT22;10667;51.056;3.732;2023-09-07T02:42:41;22.10;99.90
21019;DHT22;10667;51.056;3.732;2023-09-07T02:45:10;22.10;99.90
21019;DHT22;10667;51.056;3.732;2023-09-07T02:47:37;22.10;99.90
21019;DHT22;10667;51.056;3.732;2023-09-07T02:50:03;22.00;99.90
21019;DHT22;10667;51.056;3.732;2023-09-07T02:52:29;22.00;99.90
21019;DHT22;10667;51.056;3.732;2023-09-07T02:54:54;22.00;99.90
21019;DHT22;10667;51.056;3.732;2023-09-07T02:57:20;22.00;99.90
21019;DHT22;10667;51.056;3.732;2023-09-07T02:59:46;22.00;99.90
21019;DHT22;10667;51.056;3.732;2023-09-07T03:02:11;22.00;99.90
21019;DHT22;10667;51.056;3.732;2023-09-07T03:04:37;21.90;99.90
21019;DHT22;10667;51.056;3.732;2023-09-07T03:07:03;21.90;99.90
21019;DHT22;10667;51.056;3.732;2023-09-07T03:09:29;21.90;99.90
21019;DHT22;10667;51.056;3.732;2023-09-07T03:11:54;21.90;99.90
21019;DHT22;10667;51.056;3.732;2023-09-07T03:14:20;21.90;99.90
21019;DHT22;10667;51.056;3.732;2023-09-07T03:16:45;21.90;99.90
21019;DHT22;10667;51.056;3.732;2023-09-07T03:19:14;21.90;99.90
21019;DHT22;10667;51.056;3.732;2023-09-07T03:21:39;21.90;99.90
21019;DHT22;10667;51.056;3.732;2023-09-07T03:24:05;21.90;99.90
21019;DHT22;10667;51.056;3.732;2023-09-07T03:26:31;21.80;99.90
21019;DHT22;10667;51.056;3.732;2023-09-07T03:28:57;21.80;99.90
21019;DHT22;10667;51.056;3.732;2023-09-07T03:31:23;21.80;99.90
21019;DHT22;10667;51.056;3.732;2023-09-07T03:33:49;21.70;99.90
21019;DHT22;10667;51.056;3.732;2023-09-07T03:36:15;21.70;99.90
21019;DHT22;10667;51.056;3.732;2023-09-07T03:38:41;21.70;99.90
21019;DHT22;10667;51.056;3.732;2023-09-07T03:41:06;21.60;99.90
21019;DHT22;10667;51.056;3.732;2023-09-07T03:43:32;21.60;99.90
21019;DHT22;10667;51.056;3.732;2023-09-07T03:45:58;21.50;99.90
21019;DHT22;10667;51.056;3.732;2023-09-07T03:48:23;21.60;99.90
21019;DHT22;10667;51.056;3.732;2023-09-07T03:50:49;21.50;99.90
21019;DHT22;10667;51.056;3.732;2023-09-07T03:53:15;21.50;99.90
21019;DHT22;10667;51.056;3.732;2023-09-07T03:55:42;21.50;99.90
21019;DHT22;10667;51.056;3.732;2023-09-07T03:58:09;21.50;99.90
21019;DHT22;10667;51.056;3.732;2023-09-07T04:00:38;21.50;99.90
21019;DHT22;10667;51.056;3.732;2023-09-07T04:03:05;21.40;99.90
21019;DHT22;10667;51.056;3.732;2023-09-07T04:05:31;21.50;99.90
21019;DHT22;10667;51.056;3.732;2023-09-07T04:07:57;21.50;99.90
21019;DHT22;10667;51.056;3.732;2023-09-07T04:10:22;21.50;99.90
21019;DHT22;10667;51.056;3.732;2023-09-07T04:12:48;21.50;99.90
21019;DHT22;10667;51.056;3.732;2023-09-07T04:15:14;21.40;99.90
21019;DHT22;10667;51.056;3.732;2023-09-07T04:17:39;21.40;99.90
21019;DHT22;10667;51.056;3.732;2023-09-07T04:20:07;21.40;99.90
21019;DHT22;10667;51.056;3.732;2023-09-07T04:22:33;21.40;99.90
21019;DHT22;10667;51.056;3.732;2023-09-07T04:24:59;21.40;99.90
21019;DHT22;10667;51.056;3.732;2023-09-07T04:27:24;21.40;99.90
21019;DHT22;10667;51.056;3.732;2023-09-07T04:29:51;21.40;99.90
21019;DHT22;10667;51.056;3.732;2023-09-07T04:32:16;21.30;99.90
21019;DHT22;10667;51.056;3.732;2023-09-07T04:34:42;21.30;99.90
21019;DHT22;10667;51.056;3.732;2023-09-07T04:37:08;21.30;99.90
21019;DHT22;10667;51.056;3.732;2023-09-07T04:39:33;21.30;99.90
21019;DHT22;10667;51.056;3.732;2023-09-07T04:41:59;21.30;99.90
21019;DHT22;10667;51.056;3.732;2023-09-07T04:44:26;21.30;99.90
21019;DHT22;10667;51.056;3.732;2023-09-07T04:46:55;21.20;99.90
21019;DHT22;10667;51.056;3.732;2023-09-07T04:49:20;21.20;99.90
21019;DHT22;10667;51.056;3.732;2023-09-07T04:51:46;21.30;99.90
21019;DHT22;10667;51.056;3.732;2023-09-07T04:54:12;21.20;99.90
21019;DHT22;10667;51.056;3.732;2023-09-07T04:56:38;21.20;99.90
21019;DHT22;10667;51.056;3.732;2023-09-07T04:59:04;21.20;99.90
21019;DHT22;10667;51.056;3.732;2023-09-07T05:01:29;21.30;99.90
21019;DHT22;10667;51.056;3.732;2023-09-07T05:03:57;21.20;99.90
21019;DHT22;10667;51.056;3.732;2023-09-07T05:06:22;21.20;99.90
21019;DHT22;10667;51.056;3.732;2023-09-07T05:08:48;21.20;99.90
21019;DHT22;10667;51.056;3.732;2023-09-07T05:11:14;21.20;99.90
21019;DHT22;10667;51.056;3.732;2023-09-07T05:13:39;21.20;99.90
21019;DHT22;10667;51.056;3.732;2023-09-07T05:16:05;21.20;99.90
21019;DHT22;10667;51.056;3.732;2023-09-07T05:18:31;21.20;99.90
21019;DHT22;10667;51.056;3.732;2023-09-07T05:20:56;21.20;99.90
21019;DHT22;10667;51.056;3.732;2023-09-07T05:23:22;21.20;99.90
21019;DHT22;10667;51.056;3.732;2023-09-07T05:25:51;21.20;99.90
21019;DHT22;10667;51.056;3.732;2023-09-07T05:28:21;21.20;99.90
21019;DHT22;10667;51.056;3.732;2023-09-07T05:30:47;21.20;99.90
21019;DHT22;10667;51.056;3.732;2023-09-07T05:33:15;21.10;99.90
21019;DHT22;10667;51.056;3.732;2023-09-07T05:35:42;21.20;99.90
21019;DHT22;10667;51.056;3.732;2023-09-07T05:38:08;21.20;99.90
21019;DHT22;10667;51.056;3.732;2023-09-07T05:40:41;21.20;99.90
21019;DHT22;10667;51.056;3.732;2023-09-07T05:43:08;21.20;99.90
21019;DHT22;10667;51.056;3.732;2023-09-07T05:45:36;21.20;99.90
21019;DHT22;10667;51.056;3.732;2023-09-07T05:48:03;21.20;99.90
21019;DHT22;10667;51.056;3.732;2023-09-07T05:50:29;21.20;99.90
21019;DHT22;10667;51.056;3.732;2023-09-07T05:52:54;21.30;99.90
21019;DHT22;10667;51.056;3.732;2023-09-07T05:55:20;21.30;99.90
21019;DHT22;10667;51.056;3.732;2023-09-07T05:57:46;21.20;99.90
21019;DHT22;10667;51.056;3.732;2023-09-07T06:00:12;21.20;99.90
21019;DHT22;10667;51.056;3.732;2023-09-07T06:02:38;21.20;99.90
21019;DHT22;10667;51.056;3.732;2023-09-07T06:05:05;21.30;99.90
21019;DHT22;10667;51.056;3.732;2023-09-07T06:07:30;21.30;99.90
21019;DHT22;10667;51.056;3.732;2023-09-07T06:09:56;21.30;99.90
21019;DHT22;10667;51.056;3.732;2023-09-07T06:12:24;21.20;99.90
21019;DHT22;10667;51.056;3.732;2023-09-07T06:14:50;21.20;99.90
21019;DHT22;10667;51.056;3.732;2023-09-07T06:17:16;21.20;99.90
21019;DHT22;10667;51.056;3.732;2023-09-07T06:19:41;21.20;99.90
21019;DHT22;10667;51.056;3.732;2023-09-07T06:22:08;21.20;99.90
21019;DHT22;10667;51.056;3.732;2023-09-07T06:24:33;21.20;99.90
21019;DHT22;10667;51.056;3.732;2023-09-07T06:26:59;21.20;99.90
21019;DHT22;10667;51.056;3.732;2023-09-07T06:29:24;21.20;99.90
21019;DHT22;10667;51.056;3.732;2023-09-07T06:31:50;21.20;99.90
21019;DHT22;10667;51.056;3.732;2023-09-07T06:34:17;21.30;99.90
21019;DHT22;10667;51.056;3.732;2023-09-07T06:36:43;21.20;99.90
21019;DHT22;10667;51.056;3.732;2023-09-07T06:39:08;21.20;99.90
21019;DHT22;10667;51.056;3.732;2023-09-07T06:41:34;21.30;99.90
21019;DHT22;10667;51.056;3.732;2023-09-07T06:44:00;21.30;99.90
21019;DHT22;10667;51.056;3.732;2023-09-07T06:46:26;21.30;99.90
21019;DHT22;10667;51.056;3.732;2023-09-07T06:48:52;21.40;99.90
21019;DHT22;10667;51.056;3.732;2023-09-07T06:51:17;21.40;99.90
21019;DHT22;10667;51.056;3.732;2023-09-07T06:53:43;21.40;99.90
21019;DHT22;10667;51.056;3.732;2023-09-07T06:56:09;21.40;99.90
21019;DHT22;10667;51.056;3.732;2023-09-07T06:58:35;21.50;99.90
21019;DHT22;10667;51.056;3.732;2023-09-07T07:01:01;21.50;99.90
21019;DHT22;10667;51.056;3.732;2023-09-07T07:03:28;21.50;99.90
21019;DHT22;10667;51.056;3.732;2023-09-07T07:05:57;21.60;99.90
21019;DHT22;10667;51.056;3.732;2023-09-07T07:08:23;21.60;99.90
21019;DHT22;10667;51.056;3.732;2023-09-07T07:10:49;21.60;99.90
21019;DHT22;10667;51.056;3.732;2023-09-07T07:13:15;21.70;99.90
21019;DHT22;10667;51.056;3.732;2023-09-07T07:15:41;21.70;99.90
21019;DHT22;10667;51.056;3.732;2023-09-07T07:18:07;21.70;99.90
21019;DHT22;10667;51.056;3.732;2023-09-07T07:20:40;21.80;99.90
21019;DHT22;10667;51.056;3.732;2023-09-07T07:23:06;21.80;99.90
21019;DHT22;10667;51.056;3.732;2023-09-07T07:25:32;21.80;99.90
21019;DHT22;10667;51.056;3.732;2023-09-07T07:28:03;21.90;99.90
21019;DHT22;10667;51.056;3.732;2023-09-07T07:30:31;22.00;99.90
21019;DHT22;10667;51.056;3.732;2023-09-07T07:32:57;22.00;99.90
21019;DHT22;10667;51.056;3.732;2023-09-07T07:35:23;22.10;99.90
21019;DHT22;10667;51.056;3.732;2023-09-07T07:37:49;22.10;99.90
21019;DHT22;10667;51.056;3.732;2023-09-07T07:40:15;22.20;99.90
21019;DHT22;10667;51.056;3.732;2023-09-07T07:42:41;22.20;99.90
21019;DHT22;10667;51.056;3.732;2023-09-07T07:45:07;22.30;99.90
21019;DHT22;10667;51.056;3.732;2023-09-07T07:47:33;22.30;99.90
21019;DHT22;10667;51.056;3.732;2023-09-07T07:49:59;22.40;99.90
21019;DHT22;10667;51.056;3.732;2023-09-07T07:52:24;22.40;99.90
21019;DHT22;10667;51.056;3.732;2023-09-07T07:54:50;22.50;99.90
21019;DHT22;10667;51.056;3.732;2023-09-07T07:57:16;22.50;99.90
21019;DHT22;10667;51.056;3.732;2023-09-07T07:59:41;22.60;99.90
21019;DHT22;10667;51.056;3.732;2023-09-07T08:02:07;22.70;99.90
21019;DHT22;10667;51.056;3.732;2023-09-07T08:04:33;22.70;99.90
21019;DHT22;10667;51.056;3.732;2023-09-07T08:07:00;22.80;99.90
21019;DHT22;10667;51.056;3.732;2023-09-07T08:09:30;22.80;99.90
21019;DHT22;10667;51.056;3.732;2023-09-07T08:11:56;22.90;99.90
21019;DHT22;10667;51.056;3.732;2023-09-07T08:14:25;23.00;99.90
21019;DHT22;10667;51.056;3.732;2023-09-07T08:16:52;23.00;99.90
21019;DHT22;10667;51.056;3.732;2023-09-07T08:19:18;23.10;99.90
21019;DHT22;10667;51.056;3.732;2023-09-07T08:21:45;23.20;99.90
21019;DHT22;10667;51.056;3.732;2023-09-07T08:24:11;23.30;99.90
21019;DHT22;10667;51.056;3.732;2023-09-07T08:26:37;23.30;99.90
21019;DHT22;10667;51.056;3.732;2023-09-07T08:29:03;23.40;99.90
21019;DHT22;10667;51.056;3.732;2023-09-07T08:31:32;23.50;99.90
21019;DHT22;10667;51.056;3.732;2023-09-07T08:34:00;23.60;99.90
21019;DHT22;10667;51.056;3.732;2023-09-07T08:36:25;23.70;99.90
21019;DHT22;10667;51.056;3.732;2023-09-07T08:38:53;23.70;99.90
21019;DHT22;10667;51.056;3.732;2023-09-07T08:41:20;23.80;99.90
21019;DHT22;10667;51.056;3.732;2023-09-07T08:43:46;23.90;99.90
21019;DHT22;10667;51.056;3.732;2023-09-07T08:46:18;24.00;99.90
21019;DHT22;10667;51.056;3.732;2023-09-07T08:48:46;24.10;99.90
21019;DHT22;10667;51.056;3.732;2023-09-07T08:51:15;24.10;99.90
21019;DHT22;10667;51.056;3.732;2023-09-07T08:53:41;24.30;99.90
21019;DHT22;10667;51.056;3.732;2023-09-07T08:56:16;24.40;99.90
21019;DHT22;10667;51.056;3.732;2023-09-07T08:58:42;24.40;99.90
21019;DHT22;10667;51.056;3.732;2023-09-07T09:01:10;24.60;99.90
21019;DHT22;10667;51.056;3.732;2023-09-07T09:03:36;24.60;99.90
21019;DHT22;10667;51.056;3.732;2023-09-07T09:06:03;24.80;99.90
21019;DHT22;10667;51.056;3.732;2023-09-07T09:08:29;24.80;99.90
21019;DHT22;10667;51.056;3.732;2023-09-07T09:11:02;25.00;99.90
21019;DHT22;10667;51.056;3.732;2023-09-07T09:13:32;25.10;99.90
21019;DHT22;10667;51.056;3.732;2023-09-07T09:16:01;25.20;99.90
21019;DHT22;10667;51.056;3.732;2023-09-07T09:18:28;25.40;99.90
21019;DHT22;10667;51.056;3.732;2023-09-07T09:20:57;25.50;99.90
21019;DHT22;10667;51.056;3.732;2023-09-07T09:23:36;25.60;99.90
21019;DHT22;10667;51.056;3.732;2023-09-07T09:26:03;25.70;99.90
21019;DHT22;10667;51.056;3.732;2023-09-07T09:28:33;25.80;99.90
21019;DHT22;10667;51.056;3.732;2023-09-07T09:31:00;25.90;99.90
21019;DHT22;10667;51.056;3.732;2023-09-07T09:33:26;26.10;99.90
21019;DHT22;10667;51.056;3.732;2023-09-07T09:35:54;26.20;99.90
21019;DHT22;10667;51.056;3.732;2023-09-07T09:38:20;26.30;99.90
21019;DHT22;10667;51.056;3.732;2023-09-07T09:40:45;26.50;99.90
21019;DHT22;10667;51.056;3.732;2023-09-07T09:43:12;26.60;99.90
21019;DHT22;10667;51.056;3.732;2023-09-07T09:45:38;26.70;99.90
21019;DHT22;10667;51.056;3.732;2023-09-07T09:48:05;26.80;99.90
21019;DHT22;10667;51.056;3.732;2023-09-07T09:50:32;27.00;99.90
21019;DHT22;10667;51.056;3.732;2023-09-07T09:52:59;27.10;99.90
21019;DHT22;10667;51.056;3.732;2023-09-07T09:55:25;27.30;99.90
21019;DHT22;10667;51.056;3.732;2023-09-07T09:57:51;27.50;99.90
21019;DHT22;10667;51.056;3.732;2023-09-07T10:00:17;27.70;99.90
21019;DHT22;10667;51.056;3.732;2023-09-07T10:02:50;27.90;99.90
21019;DHT22;10667;51.056;3.732;2023-09-07T10:05:18;28.10;99.90
21019;DHT22;10667;51.056;3.732;2023-09-07T10:07:44;28.30;99.90
21019;DHT22;10667;51.056;3.732;2023-09-07T10:10:12;28.50;99.90
21019;DHT22;10667;51.056;3.732;2023-09-07T10:12:43;28.70;99.90
21019;DHT22;10667;51.056;3.732;2023-09-07T10:17:46;29.10;99.90
21019;DHT22;10667;51.056;3.732;2023-09-07T10:20:19;29.30;99.90
21019;DHT22;10667;51.056;3.732;2023-09-07T10:22:48;29.40;99.90
21019;DHT22;10667;51.056;3.732;2023-09-07T10:25:21;29.60;99.90
21019;DHT22;10667;51.056;3.732;2023-09-07T10:27:48;29.80;99.90
21019;DHT22;10667;51.056;3.732;2023-09-07T10:30:14;30.00;99.90
21019;DHT22;10667;51.056;3.732;2023-09-07T10:32:45;30.10;99.90
21019;DHT22;10667;51.056;3.732;2023-09-07T10:35:15;30.30;99.90
21019;DHT22;10667;51.056;3.732;2023-09-07T10:37:44;30.50;99.90
21019;DHT22;10667;51.056;3.732;2023-09-07T10:40:11;30.70;99.90
21019;DHT22;10667;51.056;3.732;2023-09-07T10:42:37;30.90;99.90
21019;DHT22;10667;51.056;3.732;2023-09-07T10:45:14;31.10;99.90
21019;DHT22;10667;51.056;3.732;2023-09-07T10:47:45;31.40;99.90
21019;DHT22;10667;51.056;3.732;2023-09-07T10:50:12;31.60;99.90
21019;DHT22;10667;51.056;3.732;2023-09-07T10:52:42;31.70;99.90
21019;DHT22;10667;51.056;3.732;2023-09-07T10:55:08;31.80;99.90
21019;DHT22;10667;51.056;3.732;2023-09-07T10:57:46;31.90;99.90
21019;DHT22;10667;51.056;3.732;2023-09-07T11:00:13;32.10;99.90
21019;DHT22;10667;51.056;3.732;2023-09-07T11:02:43;32.30;99.90
21019;DHT22;10667;51.056;3.732;2023-09-07T11:05:09;32.60;99.90
21019;DHT22;10667;51.056;3.732;2023-09-07T11:07:36;32.70;99.10
21019;DHT22;10667;51.056;3.732;2023-09-07T11:10:05;32.80;98.30
21019;DHT22;10667;51.056;3.732;2023-09-07T11:12:39;33.10;97.80
21019;DHT22;10667;51.056;3.732;2023-09-07T11:15:09;33.20;97.30
21019;DHT22;10667;51.056;3.732;2023-09-07T11:17:37;33.40;95.70
21019;DHT22;10667;51.056;3.732;2023-09-07T11:20:06;33.60;96.30
21019;DHT22;10667;51.056;3.732;2023-09-07T11:22:33;33.90;96.00
21019;DHT22;10667;51.056;3.732;2023-09-07T11:25:02;34.10;95.30
21019;DHT22;10667;51.056;3.732;2023-09-07T11:27:34;34.20;93.50
21019;DHT22;10667;51.056;3.732;2023-09-07T11:30:01;34.40;94.40
21019;DHT22;10667;51.056;3.732;2023-09-07T11:32:34;34.60;93.10
21019;DHT22;10667;51.056;3.732;2023-09-07T11:34:59;34.80;92.40
21019;DHT22;10667;51.056;3.732;2023-09-07T11:37:26;34.80;92.00
21019;DHT22;10667;51.056;3.732;2023-09-07T11:39:51;35.00;91.20
21019;DHT22;10667;51.056;3.732;2023-09-07T11:42:17;35.30;88.40
21019;DHT22;10667;51.056;3.732;2023-09-07T11:44:43;35.70;88.40
21019;DHT22;10667;51.056;3.732;2023-09-07T11:47:08;36.10;84.70
21019;DHT22;10667;51.056;3.732;2023-09-07T11:49:34;36.60;87.90
21019;DHT22;10667;51.056;3.732;2023-09-07T11:52:00;37.00;81.90
21019;DHT22;10667;51.056;3.732;2023-09-07T11:54:25;37.30;79.00
21019;DHT22;10667;51.056;3.732;2023-09-07T11:56:52;37.70;74.40
21019;DHT22;10667;51.056;3.732;2023-09-07T11:59:18;37.90;75.40
21019;DHT22;10667;51.056;3.732;2023-09-07T12:01:44;38.10;72.80
21019;DHT22;10667;51.056;3.732;2023-09-07T12:04:10;38.30;73.40
21019;DHT22;10667;51.056;3.732;2023-09-07T12:06:36;38.50;69.20
21019;DHT22;10667;51.056;3.732;2023-09-07T12:09:04;38.70;68.50
21019;DHT22;10667;51.056;3.732;2023-09-07T12:11:30;38.80;67.40
21019;DHT22;10667;51.056;3.732;2023-09-07T12:13:58;38.90;68.10
21019;DHT22;10667;51.056;3.732;2023-09-07T12:16:27;39.10;64.90
21019;DHT22;10667;51.056;3.732;2023-09-07T12:18:53;39.20;63.00
21019;DHT22;10667;51.056;3.732;2023-09-07T12:21:20;39.30;62.30
21019;DHT22;10667;51.056;3.732;2023-09-07T12:23:45;39.50;63.60
21019;DHT22;10667;51.056;3.732;2023-09-07T12:26:12;39.60;58.70
21019;DHT22;10667;51.056;3.732;2023-09-07T12:28:39;39.70;58.30
21019;DHT22;10667;51.056;3.732;2023-09-07T12:31:05;39.70;59.90
21019;DHT22;10667;51.056;3.732;2023-09-07T12:33:31;39.80;58.80
21019;DHT22;10667;51.056;3.732;2023-09-07T12:35:58;39.80;57.40
21019;DHT22;10667;51.056;3.732;2023-09-07T12:38:24;40.00;57.50
21019;DHT22;10667;51.056;3.732;2023-09-07T12:40:54;40.10;55.30
21019;DHT22;10667;51.056;3.732;2023-09-07T12:43:19;40.10;53.90
21019;DHT22;10667;51.056;3.732;2023-09-07T12:45:48;40.10;56.70
21019;DHT22;10667;51.056;3.732;2023-09-07T12:48:13;40.20;56.10
21019;DHT22;10667;51.056;3.732;2023-09-07T12:50:39;40.20;53.70
21019;DHT22;10667;51.056;3.732;2023-09-07T12:53:06;40.20;53.00
21019;DHT22;10667;51.056;3.732;2023-09-07T12:55:31;40.30;53.70
21019;DHT22;10667;51.056;3.732;2023-09-07T12:57:58;40.20;51.50
21019;DHT22;10667;51.056;3.732;2023-09-07T13:00:24;40.20;51.50
21019;DHT22;10667;51.056;3.732;2023-09-07T13:02:50;40.30;52.90
21019;DHT22;10667;51.056;3.732;2023-09-07T13:05:15;40.40;50.90
21019;DHT22;10667;51.056;3.732;2023-09-07T13:07:41;40.60;49.00
21019;DHT22;10667;51.056;3.732;2023-09-07T13:10:09;40.70;50.80
21019;DHT22;10667;51.056;3.732;2023-09-07T13:12:36;40.90;48.80
21019;DHT22;10667;51.056;3.732;2023-09-07T13:15:02;41.00;49.00
21019;DHT22;10667;51.056;3.732;2023-09-07T13:17:28;41.10;48.20
21019;DHT22;10667;51.056;3.732;2023-09-07T13:19:54;41.20;49.00
21019;DHT22;10667;51.056;3.732;2023-09-07T13:22:20;41.40;48.50
21019;DHT22;10667;51.056;3.732;2023-09-07T13:24:45;41.50;48.00
21019;DHT22;10667;51.056;3.732;2023-09-07T13:27:11;41.50;49.60
21019;DHT22;10667;51.056;3.732;2023-09-07T13:29:36;41.70;46.50
21019;DHT22;10667;51.056;3.732;2023-09-07T13:32:03;41.80;48.00
21019;DHT22;10667;51.056;3.732;2023-09-07T13:34:29;41.80;45.30
21019;DHT22;10667;51.056;3.732;2023-09-07T13:36:55;42.00;46.20
21019;DHT22;10667;51.056;3.732;2023-09-07T13:39:21;42.00;48.70
21019;DHT22;10667;51.056;3.732;2023-09-07T13:41:47;42.20;46.00
21019;DHT22;10667;51.056;3.732;2023-09-07T13:44:14;42.10;46.40
21019;DHT22;10667;51.056;3.732;2023-09-07T13:46:40;42.10;45.00
21019;DHT22;10667;51.056;3.732;2023-09-07T13:49:06;42.10;46.40
21019;DHT22;10667;51.056;3.732;2023-09-07T13:51:31;42.00;46.00
21019;DHT22;10667;51.056;3.732;2023-09-07T13:54:06;42.10;47.80
21019;DHT22;10667;51.056;3.732;2023-09-07T13:56:33;42.20;44.90
21019;DHT22;10667;51.056;3.732;2023-09-07T13:58:59;42.20;44.10
21019;DHT22;10667;51.056;3.732;2023-09-07T14:01:25;42.10;44.00
21019;DHT22;10667;51.056;3.732;2023-09-07T14:03:51;42.20;47.10
21019;DHT22;10667;51.056;3.732;2023-09-07T14:06:17;42.20;45.80
21019;DHT22;10667;51.056;3.732;2023-09-07T14:08:43;42.20;45.60
21019;DHT22;10667;51.056;3.732;2023-09-07T14:11:10;42.20;48.40
21019;DHT22;10667;51.056;3.732;2023-09-07T14:13:36;42.20;49.10
21019;DHT22;10667;51.056;3.732;2023-09-07T14:16:02;42.20;44.40
21019;DHT22;10667;51.056;3.732;2023-09-07T14:18:28;42.10;45.60
21019;DHT22;10667;51.056;3.732;2023-09-07T14:20:53;42.10;43.60
21019;DHT22;10667;51.056;3.732;2023-09-07T14:23:23;42.20;44.30
21019;DHT22;10667;51.056;3.732;2023-09-07T14:25:54;42.30;45.70
21019;DHT22;10667;51.056;3.732;2023-09-07T14:28:19;42.10;43.80
21019;DHT22;10667;51.056;3.732;2023-09-07T14:30:45;42.30;45.10
21019;DHT22;10667;51.056;3.732;2023-09-07T14:33:11;42.10;43.70
21019;DHT22;10667;51.056;3.732;2023-09-07T14:35:37;42.10;44.40
21019;DHT22;10667;51.056;3.732;2023-09-07T14:38:02;42.10;43.80
21019;DHT22;10667;51.056;3.732;2023-09-07T14:40:28;41.90;43.70
21019;DHT22;10667;51.056;3.732;2023-09-07T14:42:54;41.90;43.60
21019;DHT22;10667;51.056;3.732;2023-09-07T14:45:23;42.00;44.50
21019;DHT22;10667;51.056;3.732;2023-09-07T14:47:49;41.90;44.20
21019;DHT22;10667;51.056;3.732;2023-09-07T14:50:15;42.00;42.90
21019;DHT22;10667;51.056;3.732;2023-09-07T14:52:40;42.10;42.80
21019;DHT22;10667;51.056;3.732;2023-09-07T14:55:10;42.10;42.30
21019;DHT22;10667;51.056;3.732;2023-09-07T14:57:36;42.10;41.80
21019;DHT22;10667;51.056;3.732;2023-09-07T15:00:02;42.20;42.60
21019;DHT22;10667;51.056;3.732;2023-09-07T15:02:29;42.30;43.30
21019;DHT22;10667;51.056;3.732;2023-09-07T15:04:54;42.40;43.40
21019;DHT22;10667;51.056;3.732;2023-09-07T15:07:20;42.60;42.80
21019;DHT22;10667;51.056;3.732;2023-09-07T15:09:49;42.60;41.40
21019;DHT22;10667;51.056;3.732;2023-09-07T15:12:14;42.50;42.60
21019;DHT22;10667;51.056;3.732;2023-09-07T15:14:40;42.10;43.50
21019;DHT22;10667;51.056;3.732;2023-09-07T15:17:06;41.80;43.50
21019;DHT22;10667;51.056;3.732;2023-09-07T15:19:33;41.50;43.30
21019;DHT22;10667;51.056;3.732;2023-09-07T15:22:00;41.40;42.10
21019;DHT22;10667;51.056;3.732;2023-09-07T15:24:25;41.50;43.50
21019;DHT22;10667;51.056;3.732;2023-09-07T15:26:51;41.60;41.90
21019;DHT22;10667;51.056;3.732;2023-09-07T15:29:17;41.60;42.90